createdAt,value
2019-02-17T00:01:23.189Z,17.90
2019-02-17T00:03:57.690Z,16.80
2019-02-17T00:06:31.527Z,19.95
2019-02-17T00:09:05.150Z,17.17
2019-02-17T00:11:38.993Z,18.30
2019-02-17T00:14:13.618Z,20.23
2019-02-17T00:16:47.381Z,17.10
2019-02-17T00:19:21.731Z,19.42
2019-02-17T00:21:55.476Z,14.63
2019-02-17T00:24:29.078Z,14.18
2019-02-17T00:27:02.824Z,15.85
2019-02-17T00:29:36.544Z,16.00
2019-02-17T00:32:10.923Z,19.80
2019-02-17T00:34:44.513Z,14.75
2019-02-17T00:37:18.428Z,19.30
2019-02-17T00:39:51.994Z,21.00
2019-02-17T00:42:25.565Z,15.32
2019-02-17T00:44:59.905Z,13.25
2019-02-17T00:47:33.604Z,16.92
2019-02-17T00:50:07.306Z,15.00
2019-02-17T00:52:41.099Z,15.27
2019-02-17T00:55:15.415Z,17.12
2019-02-17T00:57:49.798Z,17.60
2019-02-17T01:00:23.518Z,17.62
2019-02-17T01:02:57.108Z,21.77
2019-02-17T01:05:30.741Z,13.65
2019-02-17T01:08:04.305Z,19.17
2019-02-17T01:10:37.926Z,11.77
2019-02-17T01:13:12.258Z,13.43
2019-02-17T01:15:46.674Z,14.70
2019-02-17T01:18:20.383Z,16.25
2019-02-17T01:20:54.183Z,21.70
2019-02-17T01:23:27.769Z,18.85
2019-02-17T01:26:01.384Z,17.98
2019-02-17T01:28:34.972Z,17.25
2019-02-17T01:31:08.712Z,12.68
2019-02-17T01:33:42.312Z,17.20
2019-02-17T01:36:15.987Z,13.07
2019-02-17T01:38:49.527Z,18.90
2019-02-17T01:41:23.091Z,18.00
2019-02-17T01:43:56.704Z,14.77
2019-02-17T01:46:30.299Z,15.45
2019-02-17T01:49:03.920Z,17.35
2019-02-17T01:51:37.474Z,16.70
2019-02-17T01:54:11.084Z,15.55
2019-02-17T01:56:44.683Z,15.80
2019-02-17T01:59:18.311Z,18.33
2019-02-17T02:01:51.884Z,16.80
2019-02-17T02:04:25.578Z,14.65
2019-02-17T02:06:59.275Z,24.02
2019-02-17T02:09:32.835Z,18.52
2019-02-17T02:12:06.666Z,17.10
2019-02-17T02:14:40.448Z,15.82
2019-02-17T02:17:14.288Z,17.67
2019-02-17T02:19:48.046Z,18.58
2019-02-17T02:22:21.768Z,17.70
2019-02-17T02:24:55.357Z,17.33
2019-02-17T02:27:29.121Z,16.45
2019-02-17T02:30:02.663Z,20.80
2019-02-17T02:32:36.220Z,15.70
2019-02-17T02:35:09.856Z,14.80
2019-02-17T02:37:43.430Z,14.80
2019-02-17T02:40:16.954Z,16.77
2019-02-17T02:42:50.552Z,16.20
2019-02-17T02:45:24.109Z,13.05
2019-02-17T02:47:57.698Z,18.17
2019-02-17T02:50:31.390Z,17.95
2019-02-17T02:53:05.041Z,17.17
2019-02-17T02:55:39.574Z,15.30
2019-02-17T02:58:13.879Z,17.02
2019-02-17T03:00:47.569Z,18.52
2019-02-17T03:03:21.185Z,15.70
2019-02-17T03:05:57.520Z,16.02
2019-02-17T03:08:31.252Z,15.90
2019-02-17T03:11:05.046Z,16.00
2019-02-17T03:13:38.815Z,16.33
2019-02-17T03:16:12.378Z,16.05
2019-02-17T03:18:46.882Z,15.38
2019-02-17T03:21:21.448Z,16.62
2019-02-17T03:23:55.165Z,18.85
2019-02-17T03:26:28.761Z,15.27
2019-02-17T03:29:03.134Z,20.88
2019-02-17T03:31:36.736Z,15.45
2019-02-17T03:34:10.491Z,15.38
2019-02-17T03:36:44.915Z,11.40
2019-02-17T03:39:18.739Z,17.42
2019-02-17T03:41:52.315Z,15.35
2019-02-17T03:44:26.077Z,15.25
2019-02-17T03:46:59.782Z,12.13
2019-02-17T03:49:33.553Z,12.95
2019-02-17T03:52:07.189Z,13.98
2019-02-17T03:54:40.954Z,16.70
2019-02-17T03:57:14.573Z,10.68
2019-02-17T03:59:48.260Z,12.30
2019-02-17T04:02:22.073Z,14.65
2019-02-17T04:04:55.790Z,18.05
2019-02-17T04:07:29.499Z,21.45
2019-02-17T04:10:03.950Z,14.75
2019-02-17T04:12:37.603Z,15.68
2019-02-17T04:15:11.247Z,22.37
2019-02-17T04:17:45.904Z,23.65
2019-02-17T04:20:19.639Z,16.80
2019-02-17T04:22:53.225Z,17.42
2019-02-17T04:25:26.847Z,19.37
2019-02-17T04:28:00.387Z,17.52
2019-02-17T04:30:34.110Z,14.15
2019-02-17T04:33:07.676Z,17.37
2019-02-17T04:35:41.295Z,23.65
2019-02-17T04:38:14.860Z,17.10
2019-02-17T04:40:48.517Z,16.75
2019-02-17T04:43:22.130Z,22.23
2019-02-17T04:45:56.510Z,15.73
2019-02-17T04:48:30.138Z,14.23
2019-02-17T04:51:03.874Z,13.95
2019-02-17T04:53:37.463Z,16.50
2019-02-17T04:56:11.105Z,13.57
2019-02-17T04:58:44.891Z,14.85
2019-02-17T05:01:18.616Z,15.45
2019-02-17T05:03:52.346Z,18.55
2019-02-17T05:06:26.742Z,18.67
2019-02-17T05:09:00.527Z,14.55
2019-02-17T05:11:34.155Z,12.35
2019-02-17T05:14:07.749Z,13.32
2019-02-17T05:16:41.495Z,19.55
2019-02-17T05:19:15.309Z,14.13
2019-02-17T05:21:48.903Z,16.83
2019-02-17T05:24:22.512Z,13.43
2019-02-17T05:26:56.177Z,13.60
2019-02-17T05:29:29.702Z,16.62
2019-02-17T05:32:03.305Z,13.90
2019-02-17T05:34:37.098Z,16.85
2019-02-17T05:37:10.891Z,11.55
2019-02-17T05:39:45.217Z,15.55
2019-02-17T05:42:18.923Z,17.23
2019-02-17T05:44:52.753Z,13.18
2019-02-17T05:47:26.343Z,13.65
2019-02-17T05:50:00.032Z,13.93
2019-02-17T05:52:34.555Z,13.02
2019-02-17T05:55:08.243Z,17.42
2019-02-17T05:57:42.694Z,18.65
2019-02-17T06:00:17.086Z,18.08
2019-02-17T06:02:50.860Z,13.60
2019-02-17T06:05:24.615Z,11.95
2019-02-17T06:07:59.010Z,12.40
2019-02-17T06:10:32.731Z,18.55
2019-02-17T06:13:07.051Z,19.20
2019-02-17T06:15:40.792Z,14.57
2019-02-17T06:18:14.466Z,13.90
2019-02-17T06:20:48.208Z,21.75
2019-02-17T06:23:21.782Z,13.13
2019-02-17T06:25:55.621Z,18.35
2019-02-17T06:28:29.256Z,23.02
2019-02-17T06:31:13.697Z,14.80
2019-02-17T06:33:37.693Z,17.90
2019-02-17T06:36:12.256Z,11.45
2019-02-17T06:38:46.905Z,14.38
2019-02-17T06:41:20.569Z,12.15
2019-02-17T06:43:54.242Z,18.85
2019-02-17T06:46:30.026Z,14.25
2019-02-17T06:49:03.715Z,16.37
2019-02-17T06:51:37.508Z,15.55
2019-02-17T06:54:11.195Z,13.93
2019-02-17T06:56:44.732Z,13.82
2019-02-17T06:59:19.159Z,14.52
2019-02-17T07:01:53.467Z,20.20
2019-02-17T07:04:27.635Z,14.50
2019-02-17T07:07:01.252Z,17.92
2019-02-17T07:09:34.917Z,16.48
2019-02-17T07:12:09.212Z,22.92
2019-02-17T07:14:42.826Z,21.20
2019-02-17T07:17:16.492Z,18.92
2019-02-17T07:19:50.314Z,19.50
2019-02-17T07:22:23.984Z,18.37
2019-02-17T07:24:57.835Z,20.08
2019-02-17T07:27:31.414Z,15.45
2019-02-17T07:30:05.043Z,22.85
2019-02-17T07:32:38.704Z,12.80
2019-02-17T07:35:12.343Z,17.00
2019-02-17T07:37:46.001Z,17.08
2019-02-17T07:40:20.395Z,19.92
2019-02-17T07:42:54.024Z,22.25
2019-02-17T07:45:27.829Z,18.92
2019-02-17T07:48:01.440Z,17.35
2019-02-17T07:50:35.859Z,20.30
2019-02-17T07:53:09.579Z,17.62
2019-02-17T07:55:43.283Z,24.60
2019-02-17T07:58:17.591Z,21.55
2019-02-17T08:00:51.907Z,18.55
2019-02-17T08:03:26.476Z,17.35
2019-02-17T08:06:00.187Z,20.12
2019-02-17T08:08:33.906Z,16.98
2019-02-17T08:11:07.555Z,17.77
2019-02-17T08:13:41.900Z,16.23
2019-02-17T08:16:15.398Z,17.17
2019-02-17T08:18:48.991Z,15.65
2019-02-17T08:21:22.745Z,18.12
2019-02-17T08:23:56.531Z,15.45
2019-02-17T08:26:30.205Z,13.25
2019-02-17T08:29:03.818Z,12.65
2019-02-17T08:31:37.624Z,15.35
2019-02-17T08:34:11.354Z,14.02
2019-02-17T08:36:44.934Z,15.00
2019-02-17T08:39:18.518Z,14.35
2019-02-17T08:41:52.152Z,14.57
2019-02-17T08:44:25.759Z,15.07
2019-02-17T08:46:59.439Z,14.68
2019-02-17T08:49:33.029Z,16.75
2019-02-17T08:52:06.650Z,15.05
2019-02-17T08:54:40.324Z,17.13
2019-02-17T08:57:13.954Z,13.77
2019-02-17T08:59:47.750Z,15.00
2019-02-17T09:02:21.422Z,14.40
2019-02-17T09:04:54.985Z,17.10
2019-02-17T09:07:28.743Z,17.90
2019-02-17T09:10:02.342Z,16.00
2019-02-17T09:12:36.011Z,16.17
2019-02-17T09:15:09.671Z,15.50
2019-02-17T09:17:43.610Z,15.17
2019-02-17T09:20:17.355Z,15.63
2019-02-17T09:22:51.103Z,15.63
2019-02-17T09:25:24.814Z,16.20
2019-02-17T09:27:59.269Z,14.90
2019-02-17T09:30:33.127Z,16.27
2019-02-17T09:33:06.823Z,13.93
2019-02-17T09:35:40.572Z,17.00
2019-02-17T09:38:14.280Z,14.17
2019-02-17T09:40:48.132Z,14.47
2019-02-17T09:43:21.637Z,14.27
2019-02-17T09:45:55.303Z,20.53
2019-02-17T09:48:28.944Z,24.10
2019-02-17T09:51:02.524Z,16.43
2019-02-17T09:53:36.978Z,14.10
2019-02-17T09:56:11.479Z,14.97
2019-02-17T09:58:45.197Z,15.27
2019-02-17T10:01:18.770Z,14.83
2019-02-17T10:03:52.440Z,13.50
2019-02-17T10:06:26.888Z,15.63
2019-02-17T10:09:01.399Z,12.90
2019-02-17T10:11:34.932Z,13.60
2019-02-17T10:14:08.577Z,13.23
2019-02-17T10:16:42.340Z,13.63
2019-02-17T10:19:16.011Z,13.07
2019-02-17T10:21:49.799Z,13.33
2019-02-17T10:24:23.434Z,14.60
2019-02-17T10:26:57.062Z,15.93
2019-02-17T10:29:30.790Z,13.37
2019-02-17T10:32:04.378Z,12.77
2019-02-17T10:34:38.207Z,16.70
2019-02-17T10:37:11.941Z,13.90
2019-02-17T10:39:45.665Z,16.10
2019-02-17T10:42:19.378Z,16.03
2019-02-17T10:44:53.077Z,14.10
2019-02-17T10:47:26.798Z,16.80
2019-02-17T10:50:00.386Z,15.00
2019-02-17T10:52:33.994Z,12.67
2019-02-17T10:55:10.351Z,14.20
2019-02-17T10:57:44.051Z,13.30
2019-02-17T11:00:17.687Z,12.83
2019-02-17T11:02:51.438Z,12.27
2019-02-17T11:05:25.175Z,15.10
2019-02-17T11:07:58.768Z,12.90
2019-02-17T11:10:32.341Z,13.80
2019-02-17T11:13:05.963Z,13.37
2019-02-17T11:15:40.283Z,14.20
2019-02-17T11:18:13.998Z,14.13
2019-02-17T11:20:47.659Z,14.90
2019-02-17T11:23:21.363Z,14.50
2019-02-17T11:25:55.126Z,12.13
2019-02-17T11:28:29.707Z,13.57
2019-02-17T11:31:03.367Z,13.80
2019-02-17T11:33:37.053Z,18.90
2019-02-17T11:36:10.820Z,12.87
2019-02-17T11:41:36.037Z,13.03
2019-02-17T11:44:10.548Z,14.97
2019-02-17T11:46:44.447Z,13.13
2019-02-17T11:49:18.059Z,14.00
2019-02-17T11:51:51.823Z,15.67
2019-02-17T11:54:25.557Z,17.10
2019-02-17T11:56:59.104Z,13.40
2019-02-17T11:59:32.725Z,13.47
2019-02-17T12:02:07.192Z,14.10
2019-02-17T12:04:41.598Z,14.43
2019-02-17T12:07:16.123Z,15.83
2019-02-17T12:09:49.744Z,13.70
2019-02-17T12:12:23.574Z,12.37
2019-02-17T12:14:57.172Z,13.30
2019-02-17T12:17:30.984Z,14.95
2019-02-17T12:20:04.787Z,24.63
2019-02-17T12:22:38.545Z,15.50
2019-02-17T12:25:12.113Z,14.13
2019-02-17T12:27:45.711Z,11.40
2019-02-17T12:30:19.480Z,18.67
2019-02-17T12:32:53.290Z,15.50
2019-02-17T12:35:26.883Z,16.87
2019-02-17T12:38:00.612Z,13.30
2019-02-17T12:40:34.218Z,15.07
2019-02-17T12:43:07.756Z,18.75
2019-02-17T12:45:41.327Z,21.12
2019-02-17T12:48:15.126Z,15.60
2019-02-17T12:50:48.972Z,13.85
2019-02-17T12:53:22.712Z,12.45
2019-02-17T12:55:56.343Z,15.98
2019-02-17T12:58:30.392Z,14.48
2019-02-17T13:01:03.970Z,16.83
2019-02-17T13:03:37.547Z,14.75
2019-02-17T13:06:11.180Z,13.88
2019-02-17T13:08:44.944Z,10.85
2019-02-17T13:11:18.564Z,12.18
2019-02-17T13:13:53.059Z,13.90
2019-02-17T13:16:26.691Z,12.55
2019-02-17T13:19:00.405Z,13.38
2019-02-17T13:21:34.084Z,16.45
2019-02-17T13:24:07.804Z,13.30
2019-02-17T13:26:41.427Z,10.35
2019-02-17T13:29:15.134Z,15.10
2019-02-17T13:31:48.817Z,14.95
2019-02-17T13:34:23.231Z,17.00
2019-02-17T13:36:56.965Z,21.10
2019-02-17T13:39:30.711Z,17.12
2019-02-17T13:42:04.316Z,14.25
2019-02-17T13:44:38.170Z,18.35
2019-02-17T13:47:11.973Z,18.08
2019-02-17T13:49:45.603Z,15.88
2019-02-17T13:52:19.138Z,14.60
2019-02-17T13:54:52.949Z,14.07
2019-02-17T13:57:26.465Z,17.48
2019-02-17T14:00:00.039Z,15.63
2019-02-17T14:02:33.604Z,14.45
2019-02-17T14:05:07.163Z,14.02
2019-02-17T14:07:40.740Z,11.43
2019-02-17T14:10:14.359Z,10.15
2019-02-17T14:12:48.727Z,8.20
2019-02-17T14:15:22.436Z,8.02
2019-02-17T14:17:56.174Z,6.40
2019-02-17T14:20:29.757Z,7.05
2019-02-17T14:23:04.382Z,7.10
2019-02-17T14:25:37.976Z,8.32
2019-02-17T14:28:11.710Z,7.93
2019-02-17T14:30:45.438Z,5.05
2019-02-17T14:33:19.265Z,9.32
2019-02-17T14:35:52.805Z,5.97
2019-02-17T14:38:26.668Z,4.78
2019-02-17T14:41:00.319Z,5.60
2019-02-17T14:43:33.940Z,7.18
2019-02-17T14:46:07.517Z,5.85
2019-02-17T14:48:41.107Z,6.85
2019-02-17T14:51:14.719Z,6.05
2019-02-17T14:53:49.105Z,8.68
2019-02-17T14:56:22.690Z,9.90
2019-02-17T14:58:56.249Z,5.55
2019-02-17T15:01:29.815Z,7.72
2019-02-17T15:04:08.695Z,6.62
2019-02-17T15:06:36.986Z,6.72
2019-02-17T15:09:11.333Z,11.00
2019-02-17T15:11:44.970Z,6.45
2019-02-17T15:14:19.303Z,7.62
2019-02-17T15:16:52.971Z,5.32
2019-02-17T15:19:26.757Z,4.45
2019-02-17T15:22:01.327Z,5.95
2019-02-17T15:24:35.019Z,4.93
2019-02-17T15:27:09.516Z,5.82
2019-02-17T15:29:43.963Z,5.72
2019-02-17T15:32:17.704Z,7.45
2019-02-17T15:34:51.439Z,7.78
2019-02-17T15:37:26.131Z,7.75
2019-02-17T15:39:59.707Z,7.80
2019-02-17T15:42:33.398Z,7.87
2019-02-17T15:45:07.903Z,8.98
2019-02-17T15:47:42.468Z,9.90
2019-02-17T15:50:16.137Z,7.05
2019-02-17T15:52:50.487Z,10.35
2019-02-17T15:55:24.291Z,8.70
2019-02-17T15:57:58.106Z,9.60
2019-02-17T16:00:31.660Z,9.20
2019-02-17T16:03:05.282Z,8.55
2019-02-17T16:05:39.016Z,10.10
2019-02-17T16:08:12.779Z,10.48
2019-02-17T16:10:46.385Z,7.30
2019-02-17T16:13:20.118Z,10.30
2019-02-17T16:15:53.668Z,9.45
2019-02-17T16:18:27.277Z,8.90
2019-02-17T16:21:01.725Z,10.30
2019-02-17T16:23:35.426Z,10.43
2019-02-17T16:26:08.960Z,9.77
2019-02-17T16:28:42.591Z,8.15
2019-02-17T16:31:16.233Z,8.10
2019-02-17T16:33:49.755Z,13.38
2019-02-17T16:36:23.363Z,11.12
2019-02-17T16:38:57.627Z,10.93
2019-02-17T16:41:31.268Z,8.43
2019-02-17T16:44:05.078Z,9.85
2019-02-17T16:46:38.844Z,7.10
2019-02-17T16:49:12.438Z,6.45
2019-02-17T16:51:45.968Z,6.30
2019-02-17T16:54:19.552Z,7.15
2019-02-17T16:56:54.102Z,11.18
2019-02-17T16:59:27.783Z,11.93
2019-02-17T17:02:01.394Z,9.05
2019-02-17T17:04:35.237Z,12.35
2019-02-17T17:07:08.802Z,6.87
2019-02-17T17:09:42.624Z,8.30
2019-02-17T17:12:16.299Z,7.40
2019-02-17T17:14:50.810Z,7.05
2019-02-17T17:17:24.442Z,6.97
2019-02-17T17:19:58.202Z,6.80
2019-02-17T17:22:31.839Z,9.85
2019-02-17T17:25:06.408Z,5.70
2019-02-17T17:27:41.414Z,7.85
2019-02-17T17:30:14.712Z,7.43
2019-02-17T17:32:49.312Z,5.82
2019-02-17T17:35:23.116Z,7.70
2019-02-17T17:37:56.748Z,8.30
2019-02-17T17:40:30.399Z,6.72
2019-02-17T17:43:04.028Z,7.72
2019-02-17T17:45:37.632Z,9.65
2019-02-17T17:48:11.216Z,13.85
2019-02-17T17:50:45.787Z,14.25
2019-02-17T17:53:19.481Z,11.75
2019-02-17T17:55:53.072Z,10.40
2019-02-17T17:58:26.655Z,10.00
2019-02-17T18:01:00.427Z,9.35
2019-02-17T18:03:34.249Z,11.63
2019-02-17T18:06:08.006Z,10.75
2019-02-17T18:08:41.653Z,10.80
2019-02-17T18:11:15.212Z,8.18
2019-02-17T18:13:48.901Z,8.93
2019-02-17T18:16:22.712Z,10.98
2019-02-17T18:18:56.326Z,12.00
2019-02-17T18:21:29.960Z,12.00
2019-02-17T18:24:03.675Z,9.88
2019-02-17T18:26:37.266Z,8.82
2019-02-17T18:29:10.894Z,7.35
2019-02-17T18:31:44.696Z,11.02
2019-02-17T18:34:18.475Z,10.38
2019-02-17T18:36:52.046Z,9.50
2019-02-17T18:39:25.759Z,10.10
2019-02-17T18:41:59.344Z,9.80
2019-02-17T18:44:33.862Z,13.02
2019-02-17T18:47:07.575Z,10.48
2019-02-17T18:49:41.214Z,11.38
2019-02-17T18:52:15.566Z,8.43
2019-02-17T18:54:49.251Z,15.25
2019-02-17T18:57:22.789Z,12.35
2019-02-17T18:59:56.599Z,13.27
2019-02-17T19:02:30.317Z,15.43
2019-02-17T19:05:04.687Z,12.60
2019-02-17T19:07:38.447Z,13.15
2019-02-17T19:10:12.245Z,13.65
2019-02-17T19:12:45.828Z,10.98
2019-02-17T19:15:19.424Z,14.52
2019-02-17T19:17:53.276Z,15.05
2019-02-17T19:20:30.507Z,13.52
2019-02-17T19:23:04.295Z,13.55
2019-02-17T19:25:37.891Z,16.85
2019-02-17T19:28:11.527Z,20.45
2019-02-17T19:30:45.290Z,14.63
2019-02-17T19:33:19.782Z,16.62
2019-02-17T19:35:54.275Z,16.83
2019-02-17T19:38:27.899Z,17.02
2019-02-17T19:41:02.415Z,16.37
2019-02-17T19:43:36.103Z,13.13
2019-02-17T19:46:09.695Z,14.45
2019-02-17T19:48:43.335Z,17.10
2019-02-17T19:51:17.004Z,15.63
2019-02-17T19:53:50.659Z,10.63
2019-02-17T19:56:24.118Z,12.40
2019-02-17T19:58:58.554Z,12.02
2019-02-17T20:01:34.295Z,15.32
2019-02-17T20:04:05.807Z,13.32
2019-02-17T20:06:39.578Z,13.50
2019-02-17T20:09:15.354Z,20.75
2019-02-17T20:11:46.912Z,18.08
2019-02-17T20:14:20.551Z,16.50
2019-02-17T20:16:54.149Z,13.68
2019-02-17T20:19:27.866Z,14.98
2019-02-17T20:22:02.287Z,14.45
2019-02-17T20:24:35.971Z,13.62
2019-02-17T20:27:09.604Z,21.27
2019-02-17T20:29:43.819Z,17.05
2019-02-17T20:32:17.405Z,12.48
2019-02-17T20:34:51.119Z,11.18
2019-02-17T20:37:25.374Z,12.88
2019-02-17T20:39:58.242Z,15.05
2019-02-17T20:42:31.866Z,12.82
2019-02-17T20:45:06.065Z,10.90
2019-02-17T20:47:39.779Z,13.40
2019-02-17T20:50:13.546Z,11.27
2019-02-17T20:52:47.233Z,10.32
2019-02-17T20:55:21.760Z,15.70
2019-02-17T20:57:55.515Z,7.07
2019-02-17T21:00:30.061Z,12.65
2019-02-17T21:03:03.743Z,11.90
2019-02-17T21:05:37.592Z,9.95
2019-02-17T21:08:11.284Z,9.63
2019-02-17T21:10:45.095Z,9.43
2019-02-17T21:13:18.858Z,9.18
2019-02-17T21:15:52.437Z,8.35
2019-02-17T21:18:26.002Z,7.20
2019-02-17T21:21:00.355Z,9.80
2019-02-17T21:23:34.104Z,8.52
2019-02-17T21:26:07.727Z,6.35
2019-02-17T21:28:41.544Z,8.20
2019-02-17T21:31:15.119Z,9.15
2019-02-17T21:33:48.713Z,7.57
2019-02-17T21:36:23.442Z,7.50
2019-02-17T21:38:58.682Z,12.48
2019-02-17T21:41:30.088Z,10.27
2019-02-17T21:44:03.655Z,8.95
2019-02-17T21:46:38.160Z,10.02
2019-02-17T21:49:11.779Z,9.60
2019-02-17T21:51:45.347Z,12.37
2019-02-17T21:54:18.922Z,11.00
2019-02-17T21:56:52.690Z,8.43
2019-02-17T21:59:27.172Z,9.15
2019-02-17T22:02:00.729Z,9.68
2019-02-17T22:04:35.858Z,8.38
2019-02-17T22:07:07.988Z,8.35
2019-02-17T22:09:41.602Z,7.97
2019-02-17T22:12:15.396Z,7.72
2019-02-17T22:14:49.100Z,5.12
2019-02-17T22:17:22.632Z,9.55
2019-02-17T22:19:56.246Z,7.80
2019-02-17T22:22:29.800Z,9.68
2019-02-17T22:25:03.399Z,8.55
2019-02-17T22:27:36.989Z,8.73
2019-02-17T22:30:13.374Z,8.38
2019-02-17T22:32:46.979Z,7.03
2019-02-17T22:35:20.678Z,7.32
2019-02-17T22:37:54.291Z,9.60
2019-02-17T22:40:28.807Z,6.80
2019-02-17T22:43:02.514Z,6.40
2019-02-17T22:45:36.824Z,7.93
2019-02-17T22:48:10.510Z,9.50
2019-02-17T22:50:44.100Z,11.18
2019-02-17T22:53:17.777Z,8.52
2019-02-17T22:55:51.353Z,8.23
2019-02-17T22:58:25.707Z,7.80
2019-02-17T23:00:59.375Z,11.98
2019-02-17T23:03:33.069Z,8.80
2019-02-17T23:06:06.698Z,10.43
2019-02-17T23:08:40.287Z,7.40
2019-02-17T23:11:14.100Z,7.68
2019-02-17T23:13:48.512Z,10.52
2019-02-17T23:16:22.213Z,7.87
2019-02-17T23:18:55.760Z,9.93
2019-02-17T23:21:29.536Z,6.68
2019-02-17T23:24:04.014Z,10.68
2019-02-17T23:26:37.698Z,8.45
2019-02-17T23:29:11.330Z,10.57
2019-02-17T23:31:45.046Z,10.10
2019-02-17T23:34:18.764Z,9.38
2019-02-17T23:36:53.246Z,11.00
2019-02-17T23:39:26.975Z,8.35
2019-02-17T23:42:00.608Z,10.40
2019-02-17T23:44:35.191Z,7.28
2019-02-17T23:47:08.919Z,10.38
2019-02-17T23:49:43.405Z,10.38
2019-02-17T23:52:17.713Z,11.85
2019-02-17T23:54:51.461Z,10.55
2019-02-17T23:57:25.003Z,9.10
2019-02-17T23:59:58.741Z,11.38
